Time;durP1;ratioP1;P1;durP2;ratioP2;P2;SDS_P1;SDS_P2;PMS_P1;PMS_P2;Temp;Humidity;BMP_temperature;BMP_pressure;BME280_temperature;BME280_humidity;BME280_pressure;Samples;Min_cycle;Max_cycle;Signal;HPM_P1;HPM_P2
2022/01/15 00:00:37;;;;;;;62.80;29.92;;;;;;;;;;5091082;28;20105;-72
2022/01/15 00:03:04;;;;;;;63.95;32.08;;;;;;;;;;5086604;28;20104;-72
2022/01/15 00:05:31;;;;;;;70.28;38.17;;;;;;;;;;5093496;28;20054;-73
2022/01/15 00:07:57;;;;;;;61.72;33.33;;;;;;;;;;5092699;28;20494;-72
2022/01/15 00:10:27;;;;;;;61.35;31.52;;;;;;;;;;5075854;28;20036;-72
2022/01/15 00:12:53;;;;;;;62.53;33.88;;;;;;;;;;5097775;28;20024;-73
2022/01/15 00:15:26;;;;;;;71.35;36.90;;;;;;;;;;5090464;28;20036;-72
2022/01/15 00:18:00;;;;;;;115.30;54.58;;;;;;;;;;5109930;28;20027;-72
2022/01/15 00:20:27;;;;;;;152.15;69.82;;;;;;;;;;5093257;28;20028;-72
2022/01/15 00:22:54;;;;;;;172.13;75.75;;;;;;;;;;5095351;28;20381;-72
2022/01/15 00:25:21;;;;;;;231.07;108.43;;;;;;;;;;5076041;28;20071;-73
2022/01/15 00:27:48;;;;;;;185.65;83.20;;;;;;;;;;5093876;28;20455;-72
2022/01/15 00:30:15;;;;;;;158.60;74.78;;;;;;;;;;5070842;28;20706;-72
2022/01/15 00:32:41;;;;;;;145.07;70.07;;;;;;;;;;5090531;28;20028;-72
2022/01/15 00:35:08;;;;;;;130.52;60.28;;;;;;;;;;5090119;28;20077;-72
2022/01/15 00:37:34;;;;;;;114.25;53.22;;;;;;;;;;5101345;28;20035;-72
2022/01/15 00:40:00;;;;;;;117.78;56.33;;;;;;;;;;5086985;28;20060;-72
2022/01/15 00:42:28;;;;;;;105.70;53.88;;;;;;;;;;5098568;28;20031;-72
2022/01/15 00:44:56;;;;;;;112.85;57.40;;;;;;;;;;5104215;28;20059;-72
2022/01/15 00:47:22;;;;;;;110.78;54.83;;;;;;;;;;5089376;28;20023;-73
2022/01/15 00:49:49;;;;;;;120.45;61.13;;;;;;;;;;5089519;28;20047;-72
2022/01/15 00:52:15;;;;;;;103.97;52.05;;;;;;;;;;5089158;28;20024;-72
2022/01/15 00:54:41;;;;;;;94.65;51.15;;;;;;;;;;5081680;28;20033;-72
2022/01/15 00:57:07;;;;;;;94.40;48.15;;;;;;;;;;5072960;28;20104;-72
2022/01/15 00:59:33;;;;;;;85.47;44.35;;;;;;;;;;5077109;28;20119;-72
2022/01/15 01:01:59;;;;;;;77.72;40.13;;;;;;;;;;5087378;28;20032;-72
2022/01/15 01:04:25;;;;;;;70.43;35.53;;;;;;;;;;5108880;28;20039;-72
2022/01/15 01:06:51;;;;;;;78.80;40.45;;;;;;;;;;5092346;28;20044;-72
2022/01/15 01:09:17;;;;;;;77.25;41.58;;;;;;;;;;5094899;28;20421;-72
2022/01/15 01:11:53;;;;;;;99.45;55.33;;;;;;;;;;5086171;28;20066;-72
2022/01/15 01:20:09;;;;;;;69.78;38.13;;;;;;;;;;5084166;28;20048;-72
2022/01/15 01:25:21;;;;;;;60.60;35.10;;;;;;;;;;5089303;28;20081;-72
2022/01/15 01:27:51;;;;;;;69.75;38.08;;;;;;;;;;5081489;28;20028;-72
2022/01/15 01:30:32;;;;;;;70.50;41.33;;;;;;;;;;5108752;28;20482;-72
2022/01/15 01:36:36;;;;;;;61.78;33.58;;;;;;;;;;5026241;28;20033;-72
2022/01/15 01:41:19;;;;;;;78.68;40.90;;;;;;;;;;5080987;28;20079;-72
2022/01/15 01:48:38;;;;;;;76.85;40.75;;;;;;;;;;5087342;28;20043;-72
2022/01/15 01:51:08;;;;;;;68.72;36.63;;;;;;;;;;5109263;28;20031;-72
2022/01/15 01:53:35;;;;;;;66.68;38.10;;;;;;;;;;5092816;28;20035;-72
2022/01/15 01:56:01;;;;;;;58.65;31.55;;;;;;;;;;5091625;28;20079;-72
2022/01/15 01:58:27;;;;;;;57.13;30.73;;;;;;;;;;5082984;28;20025;-72
2022/01/15 02:00:53;;;;;;;58.05;30.95;;;;;;;;;;5085035;28;20036;-72
2022/01/15 02:03:19;;;;;;;55.50;29.02;;;;;;;;;;5085163;28;20036;-72
2022/01/15 02:05:45;;;;;;;59.33;32.80;;;;;;;;;;5089350;28;20047;-72
2022/01/15 02:08:11;;;;;;;66.22;35.58;;;;;;;;;;5084547;28;20032;-72
2022/01/15 02:10:37;;;;;;;64.53;37.38;;;;;;;;;;5076731;28;20044;-72
2022/01/15 02:13:08;;;;;;;64.40;35.78;;;;;;;;;;5070573;28;20024;-72
2022/01/15 02:15:36;;;;;;;74.18;40.60;;;;;;;;;;5097068;28;20024;-72
2022/01/15 02:18:02;;;;;;;59.78;32.83;;;;;;;;;;5100580;28;20031;-72
2022/01/15 02:25:45;;;;;;;55.17;29.23;;;;;;;;;;5080251;28;20051;-72
2022/01/15 02:28:11;;;;;;;57.25;31.98;;;;;;;;;;5073411;28;20035;-72
2022/01/15 02:30:38;;;;;;;54.83;29.10;;;;;;;;;;5082775;28;20458;-72
2022/01/15 02:33:07;;;;;;;52.10;29.88;;;;;;;;;;5069288;28;20111;-72
2022/01/15 02:35:33;;;;;;;51.10;28.85;;;;;;;;;;5079411;28;20036;-72
2022/01/15 02:38:07;;;;;;;52.70;27.17;;;;;;;;;;5108793;28;20043;-72
2022/01/15 02:40:35;;;;;;;43.67;25.67;;;;;;;;;;5090225;28;20044;-72
2022/01/15 02:43:13;;;;;;;48.30;25.52;;;;;;;;;;5089188;28;20052;-72
2022/01/15 02:45:46;;;;;;;50.15;28.75;;;;;;;;;;5074912;28;20116;-72
2022/01/15 02:48:13;;;;;;;45.08;25.13;;;;;;;;;;5092827;28;20028;-72
2022/01/15 02:50:40;;;;;;;47.08;24.73;;;;;;;;;;5079783;28;20071;-73
2022/01/15 02:53:06;;;;;;;48.08;25.45;;;;;;;;;;5100828;28;20047;-72
2022/01/15 02:55:32;;;;;;;45.92;24.77;;;;;;;;;;5091291;28;20036;-72
2022/01/15 02:57:58;;;;;;;50.20;27.48;;;;;;;;;;5107450;28;20069;-72
2022/01/15 03:00:25;;;;;;;45.50;24.42;;;;;;;;;;5091114;28;20536;-72
2022/01/15 03:02:51;;;;;;;46.42;24.77;;;;;;;;;;5087170;28;20548;-72
2022/01/15 03:05:17;;;;;;;45.28;24.30;;;;;;;;;;5075762;28;20425;-72
2022/01/15 03:07:43;;;;;;;42.70;24.23;;;;;;;;;;5091400;28;20468;-72
2022/01/15 03:10:09;;;;;;;40.45;23.35;;;;;;;;;;5078526;28;20111;-72
2022/01/15 03:12:36;;;;;;;41.85;23.83;;;;;;;;;;5099210;28;20031;-72
2022/01/15 03:15:04;;;;;;;44.30;23.65;;;;;;;;;;5091545;28;20046;-72
2022/01/15 03:17:30;;;;;;;45.38;25.17;;;;;;;;;;5094695;28;20024;-72
2022/01/15 03:19:56;;;;;;;47.80;24.02;;;;;;;;;;5077875;28;20047;-72
2022/01/15 03:22:22;;;;;;;42.15;23.75;;;;;;;;;;5094731;28;20057;-72
2022/01/15 03:24:49;;;;;;;47.40;24.80;;;;;;;;;;5109067;28;20032;-72
2022/01/15 03:27:15;;;;;;;41.13;21.75;;;;;;;;;;5083272;28;20039;-72
2022/01/15 03:29:41;;;;;;;45.72;24.25;;;;;;;;;;5084257;28;20048;-72
2022/01/15 03:32:07;;;;;;;44.28;24.58;;;;;;;;;;5083154;28;20016;-72
2022/01/15 03:34:34;;;;;;;43.00;22.98;;;;;;;;;;5097201;28;20549;-72
2022/01/15 03:37:01;;;;;;;44.70;24.45;;;;;;;;;;5086089;28;20028;-72
2022/01/15 03:39:27;;;;;;;47.10;23.23;;;;;;;;;;5090060;28;20071;-72
2022/01/15 03:41:53;;;;;;;45.95;22.42;;;;;;;;;;5086617;28;20036;-72
2022/01/15 03:44:19;;;;;;;43.55;25.15;;;;;;;;;;5099308;28;20114;-72
2022/01/15 03:46:45;;;;;;;48.10;23.58;;;;;;;;;;5073799;28;20060;-72
2022/01/15 03:49:11;;;;;;;43.83;23.88;;;;;;;;;;5085401;28;20028;-73
2022/01/15 03:51:37;;;;;;;42.60;22.80;;;;;;;;;;5090691;28;20694;-72
2022/01/15 03:54:03;;;;;;;39.10;21.48;;;;;;;;;;5098325;28;20031;-72
2022/01/15 03:56:31;;;;;;;40.08;21.77;;;;;;;;;;5103039;28;20047;-72
2022/01/15 03:58:57;;;;;;;40.55;23.13;;;;;;;;;;5089932;28;20028;-72
2022/01/15 04:01:23;;;;;;;39.10;22.15;;;;;;;;;;5075547;28;20190;-72
2022/01/15 04:03:49;;;;;;;41.20;21.42;;;;;;;;;;5078716;28;20024;-72
2022/01/15 04:06:15;;;;;;;40.70;22.55;;;;;;;;;;5090254;28;20474;-72
2022/01/15 04:08:41;;;;;;;44.83;24.55;;;;;;;;;;5089920;28;20032;-72
2022/01/15 04:11:07;;;;;;;38.40;20.60;;;;;;;;;;5093898;28;20032;-72
2022/01/15 04:13:33;;;;;;;39.85;22.25;;;;;;;;;;5081688;28;20032;-73
2022/01/15 04:16:00;;;;;;;43.63;24.38;;;;;;;;;;5090099;28;20436;-72
2022/01/15 04:18:30;;;;;;;39.60;21.15;;;;;;;;;;5081447;28;20562;-72
2022/01/15 04:20:58;;;;;;;42.33;21.25;;;;;;;;;;5077542;28;20040;-72
2022/01/15 04:23:24;;;;;;;41.13;21.08;;;;;;;;;;5069522;28;20029;-72
2022/01/15 04:25:50;;;;;;;39.22;21.67;;;;;;;;;;5108706;28;20089;-72
2022/01/15 04:28:16;;;;;;;42.38;23.20;;;;;;;;;;5110319;28;20031;-72
2022/01/15 04:30:47;;;;;;;36.83;21.27;;;;;;;;;;5107243;28;20031;-72
2022/01/15 04:33:13;;;;;;;45.33;23.70;;;;;;;;;;5086279;28;20723;-72
2022/01/15 04:35:40;;;;;;;40.90;23.38;;;;;;;;;;5083846;28;20032;-72
2022/01/15 04:38:10;;;;;;;44.42;26.35;;;;;;;;;;5077374;28;20024;-72
2022/01/15 04:40:36;;;;;;;44.88;23.55;;;;;;;;;;5099164;28;20130;-72
2022/01/15 04:43:02;;;;;;;45.40;23.65;;;;;;;;;;5109701;28;20135;-72
2022/01/15 04:45:28;;;;;;;45.40;24.30;;;;;;;;;;5107547;28;20062;-72
2022/01/15 04:47:54;;;;;;;50.03;23.77;;;;;;;;;;5101078;28;20067;-72
2022/01/15 04:50:21;;;;;;;53.10;24.73;;;;;;;;;;5095856;28;20237;-72
2022/01/15 04:52:47;;;;;;;58.35;25.25;;;;;;;;;;5109839;28;20027;-72
2022/01/15 04:55:13;;;;;;;66.22;27.88;;;;;;;;;;5103320;28;20049;-72
2022/01/15 04:57:40;;;;;;;74.85;29.83;;;;;;;;;;5094026;28;20032;-72
2022/01/15 05:00:13;;;;;;;80.45;29.00;;;;;;;;;;5089946;28;20082;-72
2022/01/15 05:02:39;;;;;;;152.45;45.78;;;;;;;;;;5083242;28;20028;-72
2022/01/15 05:05:06;;;;;;;111.20;37.63;;;;;;;;;;5070615;28;20064;-72
2022/01/15 05:07:32;;;;;;;118.68;42.25;;;;;;;;;;5089323;28;20044;-72
2022/01/15 05:09:58;;;;;;;233.52;55.35;;;;;;;;;;5088869;28;20043;-72
2022/01/15 05:12:40;;;;;;;97.75;34.83;;;;;;;;;;5097631;28;20024;-72
2022/01/15 05:15:07;;;;;;;100.30;37.67;;;;;;;;;;5088378;28;20048;-72
2022/01/15 05:17:33;;;;;;;106.47;39.97;;;;;;;;;;5088597;28;20424;-72
2022/01/15 05:19:59;;;;;;;106.75;37.67;;;;;;;;;;5088637;28;20084;-72
2022/01/15 05:22:25;;;;;;;115.10;40.08;;;;;;;;;;5077126;28;20036;-72
2022/01/15 05:24:51;;;;;;;106.80;38.78;;;;;;;;;;5081051;28;20036;-72
2022/01/15 05:27:17;;;;;;;117.93;39.20;;;;;;;;;;5089554;28;20093;-72
2022/01/15 05:29:44;;;;;;;99.57;36.40;;;;;;;;;;5092871;28;20803;-72
2022/01/15 05:32:10;;;;;;;110.70;39.58;;;;;;;;;;5093060;28;20020;-72
2022/01/15 05:34:36;;;;;;;104.80;37.00;;;;;;;;;;5090825;28;20390;-72
2022/01/15 05:37:03;;;;;;;134.15;43.78;;;;;;;;;;5089369;28;20537;-73
2022/01/15 05:39:29;;;;;;;117.82;42.95;;;;;;;;;;5081163;28;20053;-72
2022/01/15 05:41:55;;;;;;;118.38;42.85;;;;;;;;;;5091669;28;20039;-73
2022/01/15 05:44:21;;;;;;;150.98;43.83;;;;;;;;;;5081056;28;20028;-72
2022/01/15 05:46:48;;;;;;;129.95;45.85;;;;;;;;;;5085278;28;20044;-72
2022/01/15 05:49:14;;;;;;;122.18;44.95;;;;;;;;;;5088674;28;20075;-72
2022/01/15 05:51:40;;;;;;;130.20;44.97;;;;;;;;;;5087946;28;20578;-72
2022/01/15 05:54:11;;;;;;;156.40;53.05;;;;;;;;;;5070239;28;20480;-72
2022/01/15 05:56:38;;;;;;;105.43;42.03;;;;;;;;;;5092076;28;20123;-73
2022/01/15 05:59:04;;;;;;;110.75;45.60;;;;;;;;;;5087782;28;20032;-72
2022/01/15 06:01:30;;;;;;;119.07;46.83;;;;;;;;;;5087091;28;20165;-72
2022/01/15 06:03:57;;;;;;;118.70;46.47;;;;;;;;;;5088933;28;20035;-72
2022/01/15 06:06:23;;;;;;;238.15;62.25;;;;;;;;;;5087595;28;20040;-72
2022/01/15 06:08:49;;;;;;;122.75;47.70;;;;;;;;;;5089011;28;20040;-73
2022/01/15 06:11:18;;;;;;;172.73;59.58;;;;;;;;;;5087959;28;20040;-72
2022/01/15 06:13:47;;;;;;;147.95;51.35;;;;;;;;;;5089036;28;20032;-72
2022/01/15 06:16:14;;;;;;;131.45;49.85;;;;;;;;;;5079129;28;20032;-72
2022/01/15 06:18:40;;;;;;;118.78;50.38;;;;;;;;;;5083047;28;20024;-72
2022/01/15 06:21:06;;;;;;;117.05;45.50;;;;;;;;;;5085682;28;20032;-72
2022/01/15 06:23:32;;;;;;;122.88;50.05;;;;;;;;;;5088361;28;20036;-72
2022/01/15 06:25:58;;;;;;;134.85;56.20;;;;;;;;;;5082605;28;20028;-72
2022/01/15 06:28:24;;;;;;;241.07;65.47;;;;;;;;;;5083247;28;20725;-72
2022/01/15 06:30:50;;;;;;;123.35;48.60;;;;;;;;;;5091709;28;20081;-72
2022/01/15 06:33:17;;;;;;;119.60;48.40;;;;;;;;;;5092485;28;20036;-72
2022/01/15 06:35:43;;;;;;;124.10;49.53;;;;;;;;;;5087851;28;20466;-73
2022/01/15 06:38:09;;;;;;;169.57;63.05;;;;;;;;;;5090946;28;20095;-72
2022/01/15 06:40:35;;;;;;;130.73;51.45;;;;;;;;;;5093992;28;20368;-72
2022/01/15 06:43:02;;;;;;;136.15;55.13;;;;;;;;;;5098140;28;20039;-72
2022/01/15 06:45:29;;;;;;;118.70;49.25;;;;;;;;;;5088294;28;20028;-72
2022/01/15 06:47:55;;;;;;;120.45;47.60;;;;;;;;;;5074297;28;20043;-72
2022/01/15 06:50:23;;;;;;;134.30;55.03;;;;;;;;;;5091832;28;20040;-72
2022/01/15 06:52:49;;;;;;;127.82;50.33;;;;;;;;;;5083903;28;20024;-72
2022/01/15 06:55:15;;;;;;;174.48;62.13;;;;;;;;;;5087064;28;20036;-72
2022/01/15 06:57:41;;;;;;;211.02;70.05;;;;;;;;;;5084328;28;20035;-72
2022/01/15 07:00:08;;;;;;;144.50;57.97;;;;;;;;;;5082739;28;20040;-72
2022/01/15 07:02:34;;;;;;;136.70;51.83;;;;;;;;;;5085492;28;20028;-72
2022/01/15 07:05:00;;;;;;;131.05;51.05;;;;;;;;;;5089517;28;20137;-72
2022/01/15 07:07:26;;;;;;;133.13;53.58;;;;;;;;;;5063145;28;20028;-72
2022/01/15 07:09:52;;;;;;;119.78;48.78;;;;;;;;;;5088468;28;20040;-72
2022/01/15 07:12:18;;;;;;;119.70;47.95;;;;;;;;;;5088386;28;20545;-72
2022/01/15 07:14:44;;;;;;;124.53;48.53;;;;;;;;;;5086972;28;20938;-73
2022/01/15 07:17:10;;;;;;;104.22;42.85;;;;;;;;;;5078729;28;20032;-72
2022/01/15 07:19:37;;;;;;;115.32;46.60;;;;;;;;;;5078380;28;20055;-74
2022/01/15 07:22:04;;;;;;;95.15;37.90;;;;;;;;;;5083602;28;20102;-73
2022/01/15 07:24:30;;;;;;;93.65;37.67;;;;;;;;;;5082532;28;20027;-71
2022/01/15 07:26:56;;;;;;;92.95;40.50;;;;;;;;;;5079621;28;20585;-72
2022/01/15 07:29:24;;;;;;;93.65;36.25;;;;;;;;;;5085042;28;20119;-72
2022/01/15 07:31:51;;;;;;;94.43;37.42;;;;;;;;;;5083716;28;20025;-72
2022/01/15 07:34:17;;;;;;;89.80;36.92;;;;;;;;;;5079842;28;20229;-72
2022/01/15 07:36:43;;;;;;;87.65;37.75;;;;;;;;;;5081451;28;20032;-72
2022/01/15 07:39:09;;;;;;;102.80;42.00;;;;;;;;;;5082793;28;20407;-72
2022/01/15 07:41:36;;;;;;;90.65;34.30;;;;;;;;;;5082121;28;20832;-72
2022/01/15 07:44:02;;;;;;;94.28;36.28;;;;;;;;;;5082817;28;20047;-72
2022/01/15 07:46:28;;;;;;;117.13;40.70;;;;;;;;;;5090992;28;20028;-72
2022/01/15 07:48:54;;;;;;;117.75;44.92;;;;;;;;;;5082550;28;20031;-72
2022/01/15 07:51:20;;;;;;;108.22;41.30;;;;;;;;;;5073593;28;20216;-73
2022/01/15 07:53:46;;;;;;;98.53;36.50;;;;;;;;;;5082875;28;20032;-72
2022/01/15 07:56:12;;;;;;;139.77;49.20;;;;;;;;;;5082575;28;20530;-72
2022/01/15 07:58:38;;;;;;;109.03;40.22;;;;;;;;;;5078759;28;20196;-73
2022/01/15 08:01:05;;;;;;;108.22;38.80;;;;;;;;;;5072901;28;20037;-73
2022/01/15 08:03:32;;;;;;;107.85;39.63;;;;;;;;;;5090439;28;20028;-72
2022/01/15 08:05:58;;;;;;;139.45;50.80;;;;;;;;;;5089742;28;20064;-72
2022/01/15 08:08:24;;;;;;;168.98;52.30;;;;;;;;;;5083712;28;20393;-72
2022/01/15 08:10:50;;;;;;;159.15;50.05;;;;;;;;;;5088814;28;20039;-72
2022/01/15 08:13:16;;;;;;;206.45;58.53;;;;;;;;;;5084583;28;20033;-72
2022/01/15 08:15:43;;;;;;;249.13;70.70;;;;;;;;;;5089528;28;20028;-72
2022/01/15 08:18:09;;;;;;;137.98;50.83;;;;;;;;;;5080653;28;20037;-72
2022/01/15 08:20:35;;;;;;;122.85;47.45;;;;;;;;;;5084568;28;20032;-72
2022/01/15 08:23:01;;;;;;;193.30;63.45;;;;;;;;;;5086407;28;20047;-72
2022/01/15 08:25:27;;;;;;;160.48;59.45;;;;;;;;;;5088356;28;20089;-72
2022/01/15 08:27:53;;;;;;;119.55;46.72;;;;;;;;;;5085088;28;20701;-72
2022/01/15 08:30:20;;;;;;;127.72;44.47;;;;;;;;;;5079251;28;20040;-72
2022/01/15 08:32:47;;;;;;;119.35;44.30;;;;;;;;;;5082677;28;20024;-72
2022/01/15 08:35:13;;;;;;;120.88;44.38;;;;;;;;;;5088374;28;20129;-72
2022/01/15 08:37:39;;;;;;;137.38;44.15;;;;;;;;;;5090012;28;20031;-72
2022/01/15 08:40:07;;;;;;;97.25;38.97;;;;;;;;;;5088166;28;20123;-72
2022/01/15 08:42:33;;;;;;;248.07;60.88;;;;;;;;;;5081309;28;20044;-72
2022/01/15 08:44:59;;;;;;;142.32;44.15;;;;;;;;;;5084443;28;20044;-73
2022/01/15 08:47:26;;;;;;;122.68;49.50;;;;;;;;;;5076995;28;20106;-72
2022/01/15 08:49:52;;;;;;;89.85;40.50;;;;;;;;;;5078770;28;20067;-72
2022/01/15 08:52:18;;;;;;;82.45;36.05;;;;;;;;;;5077603;28;20152;-72
2022/01/15 08:54:44;;;;;;;85.20;35.38;;;;;;;;;;5084472;28;20050;-72
2022/01/15 08:57:10;;;;;;;87.88;36.40;;;;;;;;;;5079488;28;20962;-74
2022/01/15 08:59:36;;;;;;;106.57;42.53;;;;;;;;;;5071698;28;21893;-73
2022/01/15 09:02:02;;;;;;;230.82;55.55;;;;;;;;;;5066816;28;20040;-72
2022/01/15 09:04:28;;;;;;;153.90;48.85;;;;;;;;;;5063892;28;20035;-73
2022/01/15 09:06:55;;;;;;;121.30;47.42;;;;;;;;;;5071914;28;20035;-73
2022/01/15 09:09:21;;;;;;;100.13;41.15;;;;;;;;;;5077806;28;20043;-73
2022/01/15 09:11:47;;;;;;;102.13;40.40;;;;;;;;;;5084699;28;20028;-74
2022/01/15 09:14:13;;;;;;;210.68;56.28;;;;;;;;;;5079701;28;20046;-73
2022/01/15 09:16:39;;;;;;;125.50;47.20;;;;;;;;;;5083084;28;20475;-73
2022/01/15 09:19:05;;;;;;;116.68;44.50;;;;;;;;;;5080324;28;20047;-74
2022/01/15 09:21:31;;;;;;;125.78;48.08;;;;;;;;;;5064469;28;20093;-73
2022/01/15 09:23:57;;;;;;;145.18;48.63;;;;;;;;;;5072912;28;20628;-73
2022/01/15 09:26:46;;;;;;;126.97;46.15;;;;;;;;;;5089171;28;20024;-74
2022/01/15 09:31:58;;;;;;;110.15;41.08;;;;;;;;;;5082916;28;20078;-73
2022/01/15 09:34:24;;;;;;;126.22;45.47;;;;;;;;;;5071469;28;20036;-72
2022/01/15 09:36:50;;;;;;;125.00;44.25;;;;;;;;;;5085867;28;20036;-72
2022/01/15 09:39:18;;;;;;;127.95;43.60;;;;;;;;;;5088774;28;20059;-72
2022/01/15 09:41:49;;;;;;;178.10;51.05;;;;;;;;;;5088777;28;20039;-72
2022/01/15 09:44:16;;;;;;;184.23;52.60;;;;;;;;;;5087978;28;20111;-71
2022/01/15 09:46:42;;;;;;;150.88;43.72;;;;;;;;;;5084048;28;20478;-72
2022/01/15 09:49:10;;;;;;;131.70;43.78;;;;;;;;;;5085739;28;20033;-72
2022/01/15 09:51:36;;;;;;;114.05;40.90;;;;;;;;;;5079618;28;20032;-72
2022/01/15 09:54:03;;;;;;;189.60;53.40;;;;;;;;;;5083952;28;20450;-72
2022/01/15 09:56:29;;;;;;;119.10;36.90;;;;;;;;;;5085093;28;20032;-72
2022/01/15 09:58:57;;;;;;;94.65;34.92;;;;;;;;;;5077949;28;20032;-72
2022/01/15 10:01:24;;;;;;;80.50;33.85;;;;;;;;;;5065484;28;20101;-72
2022/01/15 10:03:50;;;;;;;83.22;34.60;;;;;;;;;;5088704;28;20059;-71
2022/01/15 10:06:16;;;;;;;180.15;45.92;;;;;;;;;;5087523;28;20033;-71
2022/01/15 10:08:57;;;;;;;87.43;35.88;;;;;;;;;;5084445;28;20036;-72
2022/01/15 10:11:42;;;;;;;84.03;35.35;;;;;;;;;;5082971;28;20036;-72
2022/01/15 10:14:24;;;;;;;129.43;38.58;;;;;;;;;;5088817;28;20028;-72
2022/01/15 10:16:51;;;;;;;61.30;28.13;;;;;;;;;;5087053;28;20081;-72
2022/01/15 10:19:27;;;;;;;108.75;36.00;;;;;;;;;;5091929;28;20042;-72
2022/01/15 10:22:10;;;;;;;128.93;36.70;;;;;;;;;;5090955;28;20032;-71
2022/01/15 10:24:37;;;;;;;90.53;34.17;;;;;;;;;;5085541;28;20032;-72
2022/01/15 10:27:36;;;;;;;82.30;30.48;;;;;;;;;;5084570;28;20038;-71
2022/01/15 10:30:05;;;;;;;92.40;32.17;;;;;;;;;;5046456;28;20048;-72
2022/01/15 10:32:31;;;;;;;73.93;32.00;;;;;;;;;;5085184;28;20095;-71
2022/01/15 10:34:57;;;;;;;84.40;35.60;;;;;;;;;;5071411;28;20672;-72
2022/01/15 10:37:25;;;;;;;73.18;33.30;;;;;;;;;;5082788;28;20561;-71
2022/01/15 10:39:59;;;;;;;119.85;40.47;;;;;;;;;;5091051;28;20052;-72
2022/01/15 10:42:25;;;;;;;80.03;36.80;;;;;;;;;;5074141;28;20024;-72
2022/01/15 10:44:56;;;;;;;75.30;34.28;;;;;;;;;;5072263;28;20064;-71
2022/01/15 10:47:24;;;;;;;82.15;37.70;;;;;;;;;;5076807;28;20027;-72
2022/01/15 10:49:50;;;;;;;85.90;34.42;;;;;;;;;;5072117;28;20493;-72
2022/01/15 10:52:17;;;;;;;103.55;37.15;;;;;;;;;;5081968;28;20016;-72
2022/01/15 10:54:53;;;;;;;142.98;48.50;;;;;;;;;;5091777;28;20107;-72
2022/01/15 10:57:21;;;;;;;121.03;43.58;;;;;;;;;;5091382;28;20027;-72
2022/01/15 10:59:57;;;;;;;110.95;45.20;;;;;;;;;;5098293;28;20039;-72
2022/01/15 11:02:23;;;;;;;98.20;37.40;;;;;;;;;;5074544;28;20143;-72
2022/01/15 11:04:50;;;;;;;80.57;36.92;;;;;;;;;;5083984;28;20086;-72
2022/01/15 11:07:16;;;;;;;128.05;45.35;;;;;;;;;;5073162;28;20711;-72
2022/01/15 11:09:44;;;;;;;93.32;40.60;;;;;;;;;;5091659;28;20044;-72
2022/01/15 11:12:10;;;;;;;102.35;44.05;;;;;;;;;;5077835;28;20046;-72
2022/01/15 11:14:36;;;;;;;90.43;42.70;;;;;;;;;;5084418;28;20028;-72
2022/01/15 11:17:03;;;;;;;91.68;38.25;;;;;;;;;;5091614;28;20393;-72
2022/01/15 11:19:33;;;;;;;122.38;45.85;;;;;;;;;;5087054;28;20040;-72
2022/01/15 11:21:59;;;;;;;95.22;43.28;;;;;;;;;;5071586;28;20043;-72
2022/01/15 11:24:25;;;;;;;118.78;47.17;;;;;;;;;;5079790;28;20073;-72
2022/01/15 11:26:55;;;;;;;102.35;47.03;;;;;;;;;;5091536;28;20063;-72
2022/01/15 11:29:21;;;;;;;122.28;47.55;;;;;;;;;;5088589;28;20036;-73
2022/01/15 11:31:50;;;;;;;92.88;38.35;;;;;;;;;;5090884;28;20115;-73
2022/01/15 11:34:19;;;;;;;98.45;37.70;;;;;;;;;;5090782;28;20374;-72
2022/01/15 11:36:46;;;;;;;105.13;45.60;;;;;;;;;;5090111;28;20474;-72
2022/01/15 11:39:19;;;;;;;114.00;46.72;;;;;;;;;;5090071;28;20127;-73
2022/01/15 11:41:48;;;;;;;112.13;46.35;;;;;;;;;;5090292;28;20777;-72
2022/01/15 11:44:16;;;;;;;92.45;42.53;;;;;;;;;;5080226;28;20056;-72
2022/01/15 11:46:42;;;;;;;86.18;40.20;;;;;;;;;;5074084;28;20033;-72
2022/01/15 11:49:26;;;;;;;111.60;39.15;;;;;;;;;;5074185;28;20028;-73
2022/01/15 11:51:53;;;;;;;79.32;38.65;;;;;;;;;;5090227;28;20596;-72
2022/01/15 11:54:19;;;;;;;135.68;70.38;;;;;;;;;;5070701;28;20064;-72
2022/01/15 11:56:47;;;;;;;90.63;40.90;;;;;;;;;;5075163;28;20032;-72
2022/01/15 11:59:24;;;;;;;72.22;38.92;;;;;;;;;;5075253;28;20031;-72
2022/01/15 12:02:01;;;;;;;75.60;36.65;;;;;;;;;;5075266;28;20044;-72
2022/01/15 12:04:40;;;;;;;82.28;40.10;;;;;;;;;;5081640;28;20123;-73
2022/01/15 12:07:06;;;;;;;81.57;41.53;;;;;;;;;;5082761;28;20074;-72
2022/01/15 12:09:35;;;;;;;104.15;54.58;;;;;;;;;;5090293;28;20071;-73
2022/01/15 12:12:02;;;;;;;78.35;38.97;;;;;;;;;;5090110;28;20085;-72
2022/01/15 12:14:57;;;;;;;73.68;38.15;;;;;;;;;;5091581;28;20032;-72
2022/01/15 12:17:26;;;;;;;80.90;41.88;;;;;;;;;;5056413;28;20048;-72
2022/01/15 12:19:53;;;;;;;86.80;44.25;;;;;;;;;;5087397;28;20040;-72
2022/01/15 12:22:39;;;;;;;112.05;50.05;;;;;;;;;;5079585;28;20070;-72
2022/01/15 12:25:08;;;;;;;82.15;41.92;;;;;;;;;;5070583;28;20032;-73
2022/01/15 12:27:35;;;;;;;79.88;41.00;;;;;;;;;;5086679;28;20032;-73
2022/01/15 12:30:06;;;;;;;100.40;46.47;;;;;;;;;;5082240;28;20036;-72
2022/01/15 12:32:39;;;;;;;94.63;44.97;;;;;;;;;;5088958;28;20510;-73
2022/01/15 12:35:10;;;;;;;91.10;45.45;;;;;;;;;;5090020;28;20135;-73
2022/01/15 12:37:36;;;;;;;83.10;44.10;;;;;;;;;;5089528;28;20085;-72
2022/01/15 12:40:06;;;;;;;84.47;41.88;;;;;;;;;;5073759;28;20061;-73
2022/01/15 12:42:34;;;;;;;75.82;39.28;;;;;;;;;;5081977;28;20025;-72
2022/01/15 12:45:00;;;;;;;82.70;39.83;;;;;;;;;;5079570;28;20404;-72
2022/01/15 12:47:40;;;;;;;80.78;40.15;;;;;;;;;;5072751;28;20023;-72
2022/01/15 12:50:07;;;;;;;84.47;41.35;;;;;;;;;;5089434;28;20035;-72
2022/01/15 12:52:33;;;;;;;83.75;41.83;;;;;;;;;;5085965;28;20760;-72
2022/01/15 12:55:00;;;;;;;98.55;43.03;;;;;;;;;;5079691;28;20397;-72
2022/01/15 12:57:51;;;;;;;79.72;40.65;;;;;;;;;;5080409;28;20057;-73
2022/01/15 13:00:19;;;;;;;74.45;38.67;;;;;;;;;;5076643;28;20503;-72
2022/01/15 13:02:46;;;;;;;81.72;41.88;;;;;;;;;;5072957;28;20028;-73
2022/01/15 13:05:13;;;;;;;88.88;45.38;;;;;;;;;;5079429;28;20043;-73
2022/01/15 13:07:49;;;;;;;88.68;45.00;;;;;;;;;;5083843;28;20073;-73
2022/01/15 13:10:28;;;;;;;88.18;45.00;;;;;;;;;;5080790;28;20059;-73
2022/01/15 13:12:55;;;;;;;82.55;42.70;;;;;;;;;;5085298;28;20028;-72
2022/01/15 13:15:21;;;;;;;84.78;43.85;;;;;;;;;;5079257;28;20070;-73
2022/01/15 13:17:47;;;;;;;98.68;47.30;;;;;;;;;;5069432;28;20043;-73
2022/01/15 13:20:25;;;;;;;77.15;40.22;;;;;;;;;;5075117;28;20735;-73
2022/01/15 13:22:52;;;;;;;81.10;40.17;;;;;;;;;;5077324;28;20040;-73
2022/01/15 13:25:22;;;;;;;91.50;44.72;;;;;;;;;;5073291;28;20047;-73
2022/01/15 13:27:48;;;;;;;81.55;42.20;;;;;;;;;;5075119;28;20060;-73
2022/01/15 13:30:14;;;;;;;88.93;45.55;;;;;;;;;;5088490;28;20078;-72
2022/01/15 13:32:50;;;;;;;80.20;39.05;;;;;;;;;;5069679;28;20032;-72
2022/01/15 13:35:19;;;;;;;76.63;42.33;;;;;;;;;;5088929;28;20463;-73
2022/01/15 13:37:52;;;;;;;77.53;40.22;;;;;;;;;;5073697;28;20111;-73
2022/01/15 13:40:32;;;;;;;86.65;43.03;;;;;;;;;;5076423;28;20060;-73
2022/01/15 13:42:58;;;;;;;84.15;42.60;;;;;;;;;;5077552;28;20029;-73
2022/01/15 13:45:27;;;;;;;86.63;43.53;;;;;;;;;;5068560;28;20082;-73
2022/01/15 13:47:53;;;;;;;79.40;41.03;;;;;;;;;;5085616;28;20367;-73
2022/01/15 13:53:12;;;;;;;97.05;49.35;;;;;;;;;;5086416;28;20143;-72
2022/01/15 13:55:38;;;;;;;89.13;44.95;;;;;;;;;;5088519;28;20036;-73
2022/01/15 13:58:11;;;;;;;97.72;49.15;;;;;;;;;;5082483;28;20111;-73
2022/01/15 14:00:37;;;;;;;94.57;45.92;;;;;;;;;;5081514;28;20543;-72
2022/01/15 14:03:04;;;;;;;90.88;44.38;;;;;;;;;;5081070;28;20115;-72
2022/01/15 14:05:30;;;;;;;92.20;44.95;;;;;;;;;;5079010;28;20032;-73
2022/01/15 14:07:56;;;;;;;83.63;42.00;;;;;;;;;;5086853;28;20036;-72
2022/01/15 14:10:27;;;;;;;84.50;42.88;;;;;;;;;;5088496;28;20114;-72
2022/01/15 14:13:07;;;;;;;85.70;41.97;;;;;;;;;;5080954;28;20024;-72
2022/01/15 14:15:34;;;;;;;85.35;42.42;;;;;;;;;;5088228;28;20032;-72
2022/01/15 14:18:07;;;;;;;91.50;44.60;;;;;;;;;;5088436;28;20029;-72
2022/01/15 14:23:28;;;;;;;89.95;42.05;;;;;;;;;;5086785;28;20035;-73
2022/01/15 14:25:54;;;;;;;80.97;39.17;;;;;;;;;;5088181;28;20062;-72
2022/01/15 14:28:23;;;;;;;87.78;40.55;;;;;;;;;;5083719;28;20028;-73
2022/01/15 14:30:54;;;;;;;80.57;40.97;;;;;;;;;;5078221;28;20475;-72
2022/01/15 14:33:20;;;;;;;81.95;40.95;;;;;;;;;;5067114;28;20024;-72
2022/01/15 14:35:46;;;;;;;101.75;48.47;;;;;;;;;;5085875;28;20074;-72
2022/01/15 14:38:13;;;;;;;99.07;46.63;;;;;;;;;;5088015;28;20034;-73
2022/01/15 14:40:39;;;;;;;90.22;45.25;;;;;;;;;;5084297;28;20044;-72
2022/01/15 14:43:05;;;;;;;97.82;47.70;;;;;;;;;;5075610;28;20044;-72
2022/01/15 14:45:31;;;;;;;93.75;43.85;;;;;;;;;;5074692;28;20312;-73
2022/01/15 14:47:58;;;;;;;103.85;48.25;;;;;;;;;;5085716;28;20370;-72